sensor_id;sensor_type;location;lat;lon;timestamp;pressure;altitude;pressure_sealevel;temperature;humidity
50292;BME280;36190;54.980;73.388;2023-10-09T00:00:14;99615.91;;;10.89;64.09
50292;BME280;36190;54.980;73.388;2023-10-09T00:03:17;99617.66;;;10.81;64.36
50292;BME280;36190;54.980;73.388;2023-10-09T00:05:44;99599.91;;;10.73;64.38
50292;BME280;36190;54.980;73.388;2023-10-09T00:08:13;99598.47;;;10.71;64.56
50292;BME280;36190;54.980;73.388;2023-10-09T00:10:45;99605.00;;;10.68;64.56
50292;BME280;36190;54.980;73.388;2023-10-09T00:13:18;99610.13;;;10.70;64.58
50292;BME280;36190;54.980;73.388;2023-10-09T00:15:48;99617.56;;;10.75;64.37
50292;BME280;36190;54.980;73.388;2023-10-09T00:18:19;99611.50;;;10.81;64.21
50292;BME280;36190;54.980;73.388;2023-10-09T00:20:54;99618.13;;;10.85;64.24
50292;BME280;36190;54.980;73.388;2023-10-09T00:23:27;99610.16;;;10.92;64.01
50292;BME280;36190;54.980;73.388;2023-10-09T00:25:57;99613.28;;;10.95;64.01
50292;BME280;36190;54.980;73.388;2023-10-09T00:28:39;99602.22;;;10.98;63.84
50292;BME280;36190;54.980;73.388;2023-10-09T00:31:11;99612.53;;;11.02;63.99
50292;BME280;36190;54.980;73.388;2023-10-09T00:33:41;99618.50;;;11.04;64.04
50292;BME280;36190;54.980;73.388;2023-10-09T00:36:09;99624.47;;;11.06;63.81
50292;BME280;36190;54.980;73.388;2023-10-09T00:38:40;99624.28;;;11.07;64.02
50292;BME280;36190;54.980;73.388;2023-10-09T00:41:11;99611.13;;;11.06;64.05
50292;BME280;36190;54.980;73.388;2023-10-09T00:43:45;99626.22;;;11.13;64.13
50292;BME280;36190;54.980;73.388;2023-10-09T00:46:17;99602.75;;;11.09;64.07
50292;BME280;36190;54.980;73.388;2023-10-09T00:48:53;99611.97;;;11.06;64.28
50292;BME280;36190;54.980;73.388;2023-10-09T00:51:22;99608.84;;;11.03;64.48
50292;BME280;36190;54.980;73.388;2023-10-09T00:53:53;99589.97;;;11.04;64.66
50292;BME280;36190;54.980;73.388;2023-10-09T00:56:22;99591.81;;;11.04;64.68
50292;BME280;36190;54.980;73.388;2023-10-09T00:59:04;99588.31;;;11.03;64.88
50292;BME280;36190;54.980;73.388;2023-10-09T01:01:36;99598.16;;;11.03;64.98
50292;BME280;36190;54.980;73.388;2023-10-09T01:04:07;99583.34;;;11.00;64.89
50292;BME280;36190;54.980;73.388;2023-10-09T01:06:37;99598.16;;;11.03;65.08
50292;BME280;36190;54.980;73.388;2023-10-09T01:09:10;99599.41;;;11.07;64.98
50292;BME280;36190;54.980;73.388;2023-10-09T01:11:39;99618.78;;;11.09;65.06
50292;BME280;36190;54.980;73.388;2023-10-09T01:14:29;99619.41;;;11.11;65.04
50292;BME280;36190;54.980;73.388;2023-10-09T01:17:03;99604.41;;;11.10;65.36
50292;BME280;36190;54.980;73.388;2023-10-09T01:19:33;99602.94;;;11.07;65.31
50292;BME280;36190;54.980;73.388;2023-10-09T01:22:01;99608.28;;;11.07;65.28
50292;BME280;36190;54.980;73.388;2023-10-09T01:24:39;99602.31;;;11.05;65.52
50292;BME280;36190;54.980;73.388;2023-10-09T01:27:07;99604.75;;;11.07;65.40
50292;BME280;36190;54.980;73.388;2023-10-09T01:29:40;99603.13;;;11.06;65.52
50292;BME280;36190;54.980;73.388;2023-10-09T01:32:10;99631.09;;;11.10;65.37
50292;BME280;36190;54.980;73.388;2023-10-09T01:34:42;99585.72;;;11.10;65.45
50292;BME280;36190;54.980;73.388;2023-10-09T01:37:12;99582.19;;;11.09;65.31
50292;BME280;36190;54.980;73.388;2023-10-09T01:39:45;99590.44;;;11.08;65.46
50292;BME280;36190;54.980;73.388;2023-10-09T01:42:14;99597.41;;;11.09;65.59
50292;BME280;36190;54.980;73.388;2023-10-09T01:44:50;99610.09;;;11.07;65.58
50292;BME280;36190;54.980;73.388;2023-10-09T01:47:17;99602.31;;;11.05;65.56
50292;BME280;36190;54.980;73.388;2023-10-09T01:49:47;99616.28;;;11.07;65.65
50292;BME280;36190;54.980;73.388;2023-10-09T01:52:18;99640.94;;;11.09;65.66
50292;BME280;36190;54.980;73.388;2023-10-09T01:54:51;99622.06;;;11.11;65.54
50292;BME280;36190;54.980;73.388;2023-10-09T01:57:19;99631.72;;;11.12;65.50
50292;BME280;36190;54.980;73.388;2023-10-09T01:59:50;99615.88;;;11.10;65.47
50292;BME280;36190;54.980;73.388;2023-10-09T02:02:19;99614.50;;;11.14;65.54
50292;BME280;36190;54.980;73.388;2023-10-09T02:04:52;99601.22;;;11.21;65.35
50292;BME280;36190;54.980;73.388;2023-10-09T02:07:29;99593.78;;;11.17;65.24
50292;BME280;36190;54.980;73.388;2023-10-09T02:10:08;99599.94;;;11.17;65.19
50292;BME280;36190;54.980;73.388;2023-10-09T02:12:51;99604.91;;;11.20;65.17
50292;BME280;36190;54.980;73.388;2023-10-09T02:15:23;99607.56;;;11.20;65.07
50292;BME280;36190;54.980;73.388;2023-10-09T02:18:04;99610.25;;;11.20;64.87
50292;BME280;36190;54.980;73.388;2023-10-09T02:20:42;99624.22;;;11.22;64.90
50292;BME280;36190;54.980;73.388;2023-10-09T02:23:11;99629.56;;;11.22;64.72
50292;BME280;36190;54.980;73.388;2023-10-09T02:25:42;99630.84;;;11.26;64.73
50292;BME280;36190;54.980;73.388;2023-10-09T02:28:11;99644.19;;;11.26;64.69
50292;BME280;36190;54.980;73.388;2023-10-09T02:30:43;99618.94;;;11.29;64.57
50292;BME280;36190;54.980;73.388;2023-10-09T02:33:14;99636.81;;;11.28;64.49
50292;BME280;36190;54.980;73.388;2023-10-09T02:35:44;99639.09;;;11.32;64.64
50292;BME280;36190;54.980;73.388;2023-10-09T02:38:17;99619.63;;;11.38;64.51
50292;BME280;36190;54.980;73.388;2023-10-09T02:40:50;99635.47;;;11.39;64.11
50292;BME280;36190;54.980;73.388;2023-10-09T02:43:35;99634.06;;;11.44;63.97
50292;BME280;36190;54.980;73.388;2023-10-09T02:46:10;99628.53;;;11.45;63.82
50292;BME280;36190;54.980;73.388;2023-10-09T02:48:40;99645.19;;;11.47;63.69
50292;BME280;36190;54.980;73.388;2023-10-09T02:51:11;99648.69;;;11.48;63.59
50292;BME280;36190;54.980;73.388;2023-10-09T02:53:47;99644.16;;;11.48;63.59
50292;BME280;36190;54.980;73.388;2023-10-09T02:56:19;99644.16;;;11.48;63.53
50292;BME280;36190;54.980;73.388;2023-10-09T02:58:50;99634.75;;;11.52;63.54
50292;BME280;36190;54.980;73.388;2023-10-09T03:01:18;99636.00;;;11.56;63.41
50292;BME280;36190;54.980;73.388;2023-10-09T03:03:46;99635.63;;;11.60;63.15
50292;BME280;36190;54.980;73.388;2023-10-09T03:06:15;99631.94;;;11.61;63.17
50292;BME280;36190;54.980;73.388;2023-10-09T03:08:50;99643.69;;;11.66;63.10
50292;BME280;36190;54.980;73.388;2023-10-09T03:11:21;99627.91;;;11.72;63.04
50292;BME280;36190;54.980;73.388;2023-10-09T03:13:49;99641.72;;;11.75;62.90
50292;BME280;36190;54.980;73.388;2023-10-09T03:16:19;99621.72;;;11.71;62.63
50292;BME280;36190;54.980;73.388;2023-10-09T03:18:50;99627.59;;;11.81;62.57
50292;BME280;36190;54.980;73.388;2023-10-09T03:21:18;99634.56;;;11.82;62.52
50292;BME280;36190;54.980;73.388;2023-10-09T03:23:47;99640.56;;;11.91;62.55
50292;BME280;36190;54.980;73.388;2023-10-09T03:26:16;99627.66;;;11.95;62.29
50292;BME280;36190;54.980;73.388;2023-10-09T03:28:47;99644.75;;;12.01;62.28
50292;BME280;36190;54.980;73.388;2023-10-09T03:31:14;99640.94;;;12.10;62.03
50292;BME280;36190;54.980;73.388;2023-10-09T03:33:42;99635.63;;;12.17;61.78
50292;BME280;36190;54.980;73.388;2023-10-09T03:36:09;99624.16;;;12.23;61.62
50292;BME280;36190;54.980;73.388;2023-10-09T03:38:37;99621.69;;;12.28;61.37
50292;BME280;36190;54.980;73.388;2023-10-09T03:41:06;99634.91;;;12.36;61.37
50292;BME280;36190;54.980;73.388;2023-10-09T03:43:36;99641.28;;;12.42;61.15
50292;BME280;36190;54.980;73.388;2023-10-09T03:46:08;99632.69;;;12.47;61.16
50292;BME280;36190;54.980;73.388;2023-10-09T03:48:41;99638.25;;;12.52;60.96
50292;BME280;36190;54.980;73.388;2023-10-09T03:51:12;99623.06;;;12.59;60.93
50292;BME280;36190;54.980;73.388;2023-10-09T03:53:47;99629.25;;;12.67;60.84
50292;BME280;36190;54.980;73.388;2023-10-09T03:56:15;99630.50;;;12.71;60.61
50292;BME280;36190;54.980;73.388;2023-10-09T03:58:45;99632.16;;;12.72;60.76
50292;BME280;36190;54.980;73.388;2023-10-09T04:01:15;99646.34;;;12.72;60.94
50292;BME280;36190;54.980;73.388;2023-10-09T04:03:48;99640.81;;;12.81;60.93
50292;BME280;36190;54.980;73.388;2023-10-09T04:06:21;99645.38;;;12.87;60.81
50292;BME280;36190;54.980;73.388;2023-10-09T04:08:48;99645.81;;;12.90;60.62
50292;BME280;36190;54.980;73.388;2023-10-09T04:11:17;99657.13;;;12.92;60.59
50292;BME280;36190;54.980;73.388;2023-10-09T04:13:49;99650.34;;;12.97;60.58
50292;BME280;36190;54.980;73.388;2023-10-09T04:16:20;99642.53;;;13.02;60.42
50292;BME280;36190;54.980;73.388;2023-10-09T04:19:01;99658.63;;;13.15;60.22
50292;BME280;36190;54.980;73.388;2023-10-09T04:21:37;99648.13;;;13.34;59.80
50292;BME280;36190;54.980;73.388;2023-10-09T04:24:04;99634.78;;;13.54;59.23
50292;BME280;36190;54.980;73.388;2023-10-09T04:26:51;99626.13;;;13.72;58.85
50292;BME280;36190;54.980;73.388;2023-10-09T04:29:22;99623.44;;;13.86;58.51
50292;BME280;36190;54.980;73.388;2023-10-09T04:32:06;99635.97;;;13.99;58.26
50292;BME280;36190;54.980;73.388;2023-10-09T04:34:41;99621.50;;;14.07;58.02
50292;BME280;36190;54.980;73.388;2023-10-09T04:37:14;99637.19;;;14.10;57.86
50292;BME280;36190;54.980;73.388;2023-10-09T04:40:03;99648.75;;;14.10;57.99
50292;BME280;36190;54.980;73.388;2023-10-09T04:42:38;99636.34;;;14.16;57.99
50292;BME280;36190;54.980;73.388;2023-10-09T04:45:12;99637.75;;;14.25;57.83
50292;BME280;36190;54.980;73.388;2023-10-09T04:48:06;99658.38;;;14.32;57.86
50292;BME280;36190;54.980;73.388;2023-10-09T04:50:35;99642.47;;;14.37;57.79
50292;BME280;36190;54.980;73.388;2023-10-09T04:53:44;99641.22;;;14.46;57.63
50292;BME280;36190;54.980;73.388;2023-10-09T04:56:20;99627.97;;;14.51;57.71
50292;BME280;36190;54.980;73.388;2023-10-09T04:58:50;99643.66;;;14.54;57.60
50292;BME280;36190;54.980;73.388;2023-10-09T05:01:30;99653.34;;;14.55;57.54
50292;BME280;36190;54.980;73.388;2023-10-09T05:04:11;99663.47;;;14.53;57.49
50292;BME280;36190;54.980;73.388;2023-10-09T05:06:55;99663.03;;;14.56;57.57
50292;BME280;36190;54.980;73.388;2023-10-09T05:09:23;99647.78;;;14.57;57.45
50292;BME280;36190;54.980;73.388;2023-10-09T05:11:50;99646.09;;;14.63;57.49
50292;BME280;36190;54.980;73.388;2023-10-09T05:14:22;99659.69;;;14.75;57.32
50292;BME280;36190;54.980;73.388;2023-10-09T05:17:06;99662.53;;;14.87;57.13
50292;BME280;36190;54.980;73.388;2023-10-09T05:19:43;99649.28;;;14.92;57.07
50292;BME280;36190;54.980;73.388;2023-10-09T05:22:21;99644.28;;;14.95;57.15
50292;BME280;36190;54.980;73.388;2023-10-09T05:25:02;99653.38;;;15.01;56.97
50292;BME280;36190;54.980;73.388;2023-10-09T05:27:41;99669.25;;;15.09;57.23
50292;BME280;36190;54.980;73.388;2023-10-09T05:30:17;99658.66;;;15.15;56.87
50292;BME280;36190;54.980;73.388;2023-10-09T05:32:53;99666.88;;;15.20;56.92
50292;BME280;36190;54.980;73.388;2023-10-09T05:35:46;99674.69;;;15.28;56.78
50292;BME280;36190;54.980;73.388;2023-10-09T05:38:32;99657.97;;;15.26;56.74
50292;BME280;36190;54.980;73.388;2023-10-09T05:41:02;99656.94;;;15.20;56.98
50292;BME280;36190;54.980;73.388;2023-10-09T05:43:51;99658.88;;;15.13;57.28
50292;BME280;36190;54.980;73.388;2023-10-09T05:46:35;99666.75;;;15.08;57.59
50292;BME280;36190;54.980;73.388;2023-10-09T05:49:03;99660.81;;;14.99;57.91
50292;BME280;36190;54.980;73.388;2023-10-09T05:51:46;99654.63;;;14.92;58.43
50292;BME280;36190;54.980;73.388;2023-10-09T05:54:19;99684.03;;;14.87;58.46
50292;BME280;36190;54.980;73.388;2023-10-09T05:57:04;99657.41;;;14.78;58.97
50292;BME280;36190;54.980;73.388;2023-10-09T05:59:48;99662.19;;;14.76;59.24
50292;BME280;36190;54.980;73.388;2023-10-09T06:02:33;99663.81;;;14.77;59.52
50292;BME280;36190;54.980;73.388;2023-10-09T06:05:20;99666.13;;;14.74;59.96
50292;BME280;36190;54.980;73.388;2023-10-09T06:08:06;99676.44;;;14.70;60.31
50292;BME280;36190;54.980;73.388;2023-10-09T06:10:38;99689.00;;;14.69;60.55
50292;BME280;36190;54.980;73.388;2023-10-09T06:13:08;99667.97;;;14.66;60.92
50292;BME280;36190;54.980;73.388;2023-10-09T06:15:49;99676.22;;;14.65;61.11
50292;BME280;36190;54.980;73.388;2023-10-09T06:18:33;99681.00;;;14.63;61.46
50292;BME280;36190;54.980;73.388;2023-10-09T06:21:01;99677.06;;;14.58;61.83
50292;BME280;36190;54.980;73.388;2023-10-09T06:24:07;99652.53;;;14.48;62.34
50292;BME280;36190;54.980;73.388;2023-10-09T06:26:52;99678.53;;;14.54;62.82
50292;BME280;36190;54.980;73.388;2023-10-09T06:29:38;99675.88;;;14.54;63.34
50292;BME280;36190;54.980;73.388;2023-10-09T06:32:17;99687.81;;;14.58;63.87
50292;BME280;36190;54.980;73.388;2023-10-09T06:35:02;99677.50;;;14.55;64.34
50292;BME280;36190;54.980;73.388;2023-10-09T06:37:43;99706.19;;;14.62;64.79
50292;BME280;36190;54.980;73.388;2023-10-09T06:40:41;99686.97;;;14.65;65.08
50292;BME280;36190;54.980;73.388;2023-10-09T06:43:43;99678.91;;;14.71;64.99
50292;BME280;36190;54.980;73.388;2023-10-09T06:46:16;99677.03;;;14.72;65.44
50292;BME280;36190;54.980;73.388;2023-10-09T06:48:57;99678.47;;;14.81;65.59
50292;BME280;36190;54.980;73.388;2023-10-09T06:51:25;99679.69;;;14.85;65.91
50292;BME280;36190;54.980;73.388;2023-10-09T06:54:07;99691.63;;;14.90;65.97
50292;BME280;36190;54.980;73.388;2023-10-09T06:56:37;99690.84;;;14.89;66.27
50292;BME280;36190;54.980;73.388;2023-10-09T06:59:21;99694.75;;;14.87;66.34
50292;BME280;36190;54.980;73.388;2023-10-09T07:01:50;99676.38;;;14.83;66.67
50292;BME280;36190;54.980;73.388;2023-10-09T07:04:34;99691.88;;;14.88;66.77
50292;BME280;36190;54.980;73.388;2023-10-09T07:07:15;99683.78;;;14.95;66.63
50292;BME280;36190;54.980;73.388;2023-10-09T07:09:46;99689.56;;;14.92;66.91
50292;BME280;36190;54.980;73.388;2023-10-09T07:12:29;99692.69;;;14.89;67.10
50292;BME280;36190;54.980;73.388;2023-10-09T07:15:00;99687.09;;;14.90;66.99
50292;BME280;36190;54.980;73.388;2023-10-09T07:17:47;99713.13;;;14.90;67.03
50292;BME280;36190;54.980;73.388;2023-10-09T07:20:18;99708.84;;;14.82;67.49
50292;BME280;36190;54.980;73.388;2023-10-09T07:22:59;99694.41;;;14.76;67.75
50292;BME280;36190;54.980;73.388;2023-10-09T07:25:40;99721.88;;;14.71;67.93
50292;BME280;36190;54.980;73.388;2023-10-09T07:28:22;99712.38;;;14.62;68.17
50292;BME280;36190;54.980;73.388;2023-10-09T07:31:16;99727.06;;;14.53;68.43
50292;BME280;36190;54.980;73.388;2023-10-09T07:33:51;99730.22;;;14.43;68.77
50292;BME280;36190;54.980;73.388;2023-10-09T07:36:25;99717.00;;;14.35;69.45
50292;BME280;36190;54.980;73.388;2023-10-09T07:39:04;99714.13;;;14.29;69.74
50292;BME280;36190;54.980;73.388;2023-10-09T07:41:41;99715.16;;;14.28;69.83
50292;BME280;36190;54.980;73.388;2023-10-09T07:44:23;99731.66;;;14.25;70.01
50292;BME280;36190;54.980;73.388;2023-10-09T07:47:08;99727.34;;;14.24;70.13
50292;BME280;36190;54.980;73.388;2023-10-09T07:49:44;99712.28;;;14.23;70.38
50292;BME280;36190;54.980;73.388;2023-10-09T07:52:18;99732.91;;;14.29;70.24
50292;BME280;36190;54.980;73.388;2023-10-09T07:54:48;99727.13;;;14.33;70.13
50292;BME280;36190;54.980;73.388;2023-10-09T07:57:28;99724.63;;;14.38;69.97
50292;BME280;36190;54.980;73.388;2023-10-09T08:00:07;99717.19;;;14.40;69.93
50292;BME280;36190;54.980;73.388;2023-10-09T08:02:54;99713.06;;;14.44;69.64
50292;BME280;36190;54.980;73.388;2023-10-09T08:05:26;99720.88;;;14.46;69.56
50292;BME280;36190;54.980;73.388;2023-10-09T08:08:00;99724.59;;;14.44;69.47
50292;BME280;36190;54.980;73.388;2023-10-09T08:10:52;99716.56;;;14.44;69.16
50292;BME280;36190;54.980;73.388;2023-10-09T08:13:36;99708.31;;;14.46;69.02
50292;BME280;36190;54.980;73.388;2023-10-09T08:16:23;99720.09;;;14.45;68.89
50292;BME280;36190;54.980;73.388;2023-10-09T08:19:02;99721.28;;;14.49;68.60
50292;BME280;36190;54.980;73.388;2023-10-09T08:21:47;99722.31;;;14.62;68.44
50292;BME280;36190;54.980;73.388;2023-10-09T08:24:38;99706.75;;;14.70;68.21
50292;BME280;36190;54.980;73.388;2023-10-09T08:27:07;99714.41;;;14.80;67.88
50292;BME280;36190;54.980;73.388;2023-10-09T08:29:51;99713.53;;;14.93;67.39
50292;BME280;36190;54.980;73.388;2023-10-09T08:32:40;99717.19;;;15.06;67.05
50292;BME280;36190;54.980;73.388;2023-10-09T08:35:07;99702.06;;;15.11;66.66
50292;BME280;36190;54.980;73.388;2023-10-09T08:37:55;99707.81;;;15.22;66.34
50292;BME280;36190;54.980;73.388;2023-10-09T08:40:30;99718.88;;;15.32;65.89
50292;BME280;36190;54.980;73.388;2023-10-09T08:43:06;99706.69;;;15.36;65.39
50292;BME280;36190;54.980;73.388;2023-10-09T08:45:37;99719.25;;;15.43;65.32
50292;BME280;36190;54.980;73.388;2023-10-09T08:48:09;99716.72;;;15.48;65.29
50292;BME280;36190;54.980;73.388;2023-10-09T08:50:41;99715.88;;;15.54;65.00
50292;BME280;36190;54.980;73.388;2023-10-09T08:53:10;99696.38;;;15.59;64.83
50292;BME280;36190;54.980;73.388;2023-10-09T08:55:38;99717.25;;;15.63;64.60
50292;BME280;36190;54.980;73.388;2023-10-09T08:58:06;99712.50;;;15.65;64.58
50292;BME280;36190;54.980;73.388;2023-10-09T09:00:44;99703.59;;;15.65;64.51
50292;BME280;36190;54.980;73.388;2023-10-09T09:03:15;99725.31;;;15.63;64.38
50292;BME280;36190;54.980;73.388;2023-10-09T09:05:45;99719.13;;;15.63;64.51
50292;BME280;36190;54.980;73.388;2023-10-09T09:08:25;99726.94;;;15.64;64.66
50292;BME280;36190;54.980;73.388;2023-10-09T09:10:58;99732.59;;;15.56;65.02
50292;BME280;36190;54.980;73.388;2023-10-09T09:13:40;99721.25;;;15.54;64.94
50292;BME280;36190;54.980;73.388;2023-10-09T09:16:18;99725.41;;;15.50;65.25
50292;BME280;36190;54.980;73.388;2023-10-09T09:18:53;99724.97;;;15.53;65.03
50292;BME280;36190;54.980;73.388;2023-10-09T09:21:31;99724.53;;;15.56;65.25
50292;BME280;36190;54.980;73.388;2023-10-09T09:24:05;99736.50;;;15.60;65.02
50292;BME280;36190;54.980;73.388;2023-10-09T09:26:41;99731.47;;;15.71;64.92
50292;BME280;36190;54.980;73.388;2023-10-09T09:29:12;99731.25;;;15.72;64.95
50292;BME280;36190;54.980;73.388;2023-10-09T09:31:54;99740.50;;;15.76;64.98
50292;BME280;36190;54.980;73.388;2023-10-09T09:34:25;99736.84;;;15.71;65.04
50292;BME280;36190;54.980;73.388;2023-10-09T09:36:56;99753.84;;;15.64;65.36
50292;BME280;36190;54.980;73.388;2023-10-09T09:39:26;99747.69;;;15.57;65.75
50292;BME280;36190;54.980;73.388;2023-10-09T09:41:55;99740.72;;;15.49;65.96
50292;BME280;36190;54.980;73.388;2023-10-09T09:44:33;99760.22;;;15.38;66.59
50292;BME280;36190;54.980;73.388;2023-10-09T09:47:09;99738.75;;;15.31;66.92
50292;BME280;36190;54.980;73.388;2023-10-09T09:49:42;99762.78;;;15.26;67.59
50292;BME280;36190;54.980;73.388;2023-10-09T09:52:10;99752.44;;;15.23;67.67
50292;BME280;36190;54.980;73.388;2023-10-09T09:54:38;99747.72;;;15.18;68.03
50292;BME280;36190;54.980;73.388;2023-10-09T09:57:07;99749.19;;;15.14;68.15
50292;BME280;36190;54.980;73.388;2023-10-09T09:59:40;99750.44;;;15.11;68.59
50292;BME280;36190;54.980;73.388;2023-10-09T10:02:21;99737.44;;;15.08;68.87
50292;BME280;36190;54.980;73.388;2023-10-09T10:04:55;99746.50;;;15.07;69.13
50292;BME280;36190;54.980;73.388;2023-10-09T10:07:27;99753.38;;;15.03;69.40
50292;BME280;36190;54.980;73.388;2023-10-09T10:09:57;99752.94;;;15.06;69.26
50292;BME280;36190;54.980;73.388;2023-10-09T10:12:50;99750.44;;;15.11;69.46
50292;BME280;36190;54.980;73.388;2023-10-09T10:15:58;99750.00;;;15.15;69.43
50292;BME280;36190;54.980;73.388;2023-10-09T10:18:31;99735.97;;;15.12;69.51
50292;BME280;36190;54.980;73.388;2023-10-09T10:21:12;99734.31;;;15.11;69.83
50292;BME280;36190;54.980;73.388;2023-10-09T10:23:42;99752.94;;;15.06;69.98
50292;BME280;36190;54.980;73.388;2023-10-09T10:26:22;99733.53;;;15.04;70.47
50292;BME280;36190;54.980;73.388;2023-10-09T10:29:16;99745.50;;;15.02;71.11
50292;BME280;36190;54.980;73.388;2023-10-09T10:31:53;99751.53;;;14.97;71.01
50292;BME280;36190;54.980;73.388;2023-10-09T10:34:26;99748.44;;;14.93;71.25
50292;BME280;36190;54.980;73.388;2023-10-09T10:37:04;99747.22;;;14.89;71.44
50292;BME280;36190;54.980;73.388;2023-10-09T10:39:34;99762.94;;;14.85;71.72
50292;BME280;36190;54.980;73.388;2023-10-09T10:42:10;99757.19;;;14.75;72.18
50292;BME280;36190;54.980;73.388;2023-10-09T10:44:41;99755.72;;;14.66;72.40
50292;BME280;36190;54.980;73.388;2023-10-09T10:47:12;99759.69;;;14.56;72.95
50292;BME280;36190;54.980;73.388;2023-10-09T10:49:58;99757.41;;;14.47;73.18
50292;BME280;36190;54.980;73.388;2023-10-09T10:52:38;99767.38;;;14.39;73.52
50292;BME280;36190;54.980;73.388;2023-10-09T10:55:12;99754.59;;;14.35;73.85
50292;BME280;36190;54.980;73.388;2023-10-09T10:58:16;99767.19;;;14.27;74.63
50292;BME280;36190;54.980;73.388;2023-10-09T11:00:53;99765.94;;;14.23;74.78
50292;BME280;36190;54.980;73.388;2023-10-09T11:03:39;99773.75;;;14.18;74.96
50292;BME280;36190;54.980;73.388;2023-10-09T11:06:35;99763.88;;;14.12;75.37
50292;BME280;36190;54.980;73.388;2023-10-09T11:09:09;99769.66;;;14.09;75.57
50292;BME280;36190;54.980;73.388;2023-10-09T11:11:48;99770.06;;;14.06;75.63
50292;BME280;36190;54.980;73.388;2023-10-09T11:14:16;99768.81;;;14.01;75.77
50292;BME280;36190;54.980;73.388;2023-10-09T11:16:49;99756.44;;;14.00;75.97
50292;BME280;36190;54.980;73.388;2023-10-09T11:19:23;99760.16;;;13.99;76.02
50292;BME280;36190;54.980;73.388;2023-10-09T11:21:59;99764.50;;;14.00;75.88
50292;BME280;36190;54.980;73.388;2023-10-09T11:24:41;99757.69;;;14.05;75.73
50292;BME280;36190;54.980;73.388;2023-10-09T11:27:10;99755.63;;;14.07;75.75
50292;BME280;36190;54.980;73.388;2023-10-09T11:29:48;99751.91;;;14.08;75.95
50292;BME280;36190;54.980;73.388;2023-10-09T11:32:31;99751.28;;;14.06;75.92
50292;BME280;36190;54.980;73.388;2023-10-09T11:35:13;99753.97;;;14.06;76.28
50292;BME280;36190;54.980;73.388;2023-10-09T11:37:55;99742.00;;;13.95;76.47
50292;BME280;36190;54.980;73.388;2023-10-09T11:40:28;99736.84;;;13.93;76.51
50292;BME280;36190;54.980;73.388;2023-10-09T11:43:08;99744.50;;;13.96;76.44
50292;BME280;36190;54.980;73.388;2023-10-09T11:45:39;99751.69;;;13.96;76.44
50292;BME280;36190;54.980;73.388;2023-10-09T11:48:20;99751.09;;;13.94;76.44
50292;BME280;36190;54.980;73.388;2023-10-09T11:50:52;99754.38;;;13.89;76.84
50292;BME280;36190;54.980;73.388;2023-10-09T11:53:23;99751.28;;;13.92;76.75
50292;BME280;36190;54.980;73.388;2023-10-09T11:56:02;99763.66;;;13.93;76.64
50292;BME280;36190;54.980;73.388;2023-10-09T11:58:30;99757.28;;;13.94;76.52
50292;BME280;36190;54.980;73.388;2023-10-09T12:00:58;99763.66;;;13.93;76.56
50292;BME280;36190;54.980;73.388;2023-10-09T12:03:29;99750.91;;;13.95;76.50
50292;BME280;36190;54.980;73.388;2023-10-09T12:05:58;99749.84;;;13.96;76.07
50292;BME280;36190;54.980;73.388;2023-10-09T12:08:31;99754.00;;;13.99;76.13
50292;BME280;36190;54.980;73.388;2023-10-09T12:11:00;99750.03;;;14.01;75.99
50292;BME280;36190;54.980;73.388;2023-10-09T12:13:30;99743.66;;;14.02;75.54
50292;BME280;36190;54.980;73.388;2023-10-09T12:15:58;99744.91;;;14.07;75.34
50292;BME280;36190;54.980;73.388;2023-10-09T12:18:26;99748.19;;;14.09;75.08
50292;BME280;36190;54.980;73.388;2023-10-09T12:20:54;99748.81;;;14.11;74.81
50292;BME280;36190;54.980;73.388;2023-10-09T12:23:28;99750.47;;;14.12;74.59
50292;BME280;36190;54.980;73.388;2023-10-09T12:26:03;99740.34;;;14.14;74.36
50292;BME280;36190;54.980;73.388;2023-10-09T12:28:32;99747.38;;;14.15;73.83
50292;BME280;36190;54.980;73.388;2023-10-09T12:31:00;99746.94;;;14.18;73.71
50292;BME280;36190;54.980;73.388;2023-10-09T12:33:29;99747.56;;;14.20;73.27
50292;BME280;36190;54.980;73.388;2023-10-09T12:35:57;99740.75;;;14.24;73.04
50292;BME280;36190;54.980;73.388;2023-10-09T12:38:26;99729.63;;;14.27;72.66
50292;BME280;36190;54.980;73.388;2023-10-09T12:41:03;99737.22;;;14.30;72.38
50292;BME280;36190;54.980;73.388;2023-10-09T12:43:35;99750.22;;;14.34;72.18
50292;BME280;36190;54.980;73.388;2023-10-09T12:46:07;99745.50;;;14.36;71.88
50292;BME280;36190;54.980;73.388;2023-10-09T12:48:35;99763.84;;;14.39;71.56
50292;BME280;36190;54.980;73.388;2023-10-09T12:51:03;99758.06;;;14.42;71.29
50292;BME280;36190;54.980;73.388;2023-10-09T12:53:32;99752.69;;;14.42;71.21
50292;BME280;36190;54.980;73.388;2023-10-09T12:56:02;99751.69;;;14.43;71.01
50292;BME280;36190;54.980;73.388;2023-10-09T12:58:30;99757.84;;;14.43;70.87
50292;BME280;36190;54.980;73.388;2023-10-09T13:01:03;99759.31;;;14.46;70.60
50292;BME280;36190;54.980;73.388;2023-10-09T13:03:35;99759.09;;;14.48;70.26
50292;BME280;36190;54.980;73.388;2023-10-09T13:06:04;99764.66;;;14.46;70.14
50292;BME280;36190;54.980;73.388;2023-10-09T13:08:37;99777.69;;;14.42;70.18
50292;BME280;36190;54.980;73.388;2023-10-09T13:11:09;99779.34;;;14.37;70.01
50292;BME280;36190;54.980;73.388;2023-10-09T13:13:38;99783.69;;;14.31;70.22
50292;BME280;36190;54.980;73.388;2023-10-09T13:16:10;99782.63;;;14.25;70.23
50292;BME280;36190;54.980;73.388;2023-10-09T13:18:46;99779.78;;;14.20;70.24
50292;BME280;36190;54.980;73.388;2023-10-09T13:21:18;99784.91;;;14.15;70.31
50292;BME280;36190;54.980;73.388;2023-10-09T13:23:46;99787.00;;;14.13;70.11
50292;BME280;36190;54.980;73.388;2023-10-09T13:26:17;99785.53;;;14.10;70.17
50292;BME280;36190;54.980;73.388;2023-10-09T13:28:46;99788.41;;;14.09;70.13
50292;BME280;36190;54.980;73.388;2023-10-09T13:31:14;99778.72;;;14.08;70.16